sensor_id;sensor_type;location;lat;lon;timestamp;P1;durP1;ratioP1;P2;durP2;ratioP2
65461;SDS011;53236;43.666;18.444;2023-03-21T00:01:04;29.10;;;18.20;;
65461;SDS011;53236;43.666;18.444;2023-03-21T00:03:31;29.20;;;18.10;;
65461;SDS011;53236;43.666;18.444;2023-03-21T00:05:57;31.00;;;19.60;;
65461;SDS011;53236;43.666;18.444;2023-03-21T00:08:24;31.23;;;19.07;;
65461;SDS011;53236;43.666;18.444;2023-03-21T00:13:23;26.10;;;16.23;;
65461;SDS011;53236;43.666;18.444;2023-03-21T00:15:50;31.53;;;17.10;;
65461;SDS011;53236;43.666;18.444;2023-03-21T00:18:19;31.13;;;17.27;;
65461;SDS011;53236;43.666;18.444;2023-03-21T00:21:02;32.33;;;19.73;;
65461;SDS011;53236;43.666;18.444;2023-03-21T00:23:30;29.57;;;17.93;;
65461;SDS011;53236;43.666;18.444;2023-03-21T00:25:56;27.10;;;17.90;;
65461;SDS011;53236;43.666;18.444;2023-03-21T00:28:22;31.53;;;19.80;;
65461;SDS011;53236;43.666;18.444;2023-03-21T00:30:49;38.33;;;22.43;;
65461;SDS011;53236;43.666;18.444;2023-03-21T00:33:15;44.20;;;26.73;;
65461;SDS011;53236;43.666;18.444;2023-03-21T00:35:44;51.07;;;27.40;;
65461;SDS011;53236;43.666;18.444;2023-03-21T00:38:12;40.97;;;24.27;;
65461;SDS011;53236;43.666;18.444;2023-03-21T00:40:40;44.80;;;23.60;;
65461;SDS011;53236;43.666;18.444;2023-03-21T00:43:05;43.53;;;25.00;;
65461;SDS011;53236;43.666;18.444;2023-03-21T00:45:31;40.77;;;24.60;;
65461;SDS011;53236;43.666;18.444;2023-03-21T00:47:57;39.57;;;23.47;;
65461;SDS011;53236;43.666;18.444;2023-03-21T00:50:23;41.43;;;22.87;;
65461;SDS011;53236;43.666;18.444;2023-03-21T00:52:49;31.00;;;19.50;;
65461;SDS011;53236;43.666;18.444;2023-03-21T00:55:16;33.87;;;20.47;;
65461;SDS011;53236;43.666;18.444;2023-03-21T00:57:42;34.70;;;21.67;;
65461;SDS011;53236;43.666;18.444;2023-03-21T01:00:11;34.87;;;21.67;;
65461;SDS011;53236;43.666;18.444;2023-03-21T01:02:38;43.17;;;25.80;;
65461;SDS011;53236;43.666;18.444;2023-03-21T01:05:24;35.87;;;22.07;;
65461;SDS011;53236;43.666;18.444;2023-03-21T01:08:20;34.23;;;20.70;;
65461;SDS011;53236;43.666;18.444;2023-03-21T01:10:47;30.13;;;18.17;;
65461;SDS011;53236;43.666;18.444;2023-03-21T01:13:15;30.60;;;18.67;;
65461;SDS011;53236;43.666;18.444;2023-03-21T01:15:44;28.80;;;17.90;;
65461;SDS011;53236;43.666;18.444;2023-03-21T01:18:11;26.57;;;15.90;;
65461;SDS011;53236;43.666;18.444;2023-03-21T01:20:41;24.03;;;16.27;;
65461;SDS011;53236;43.666;18.444;2023-03-21T01:23:08;37.67;;;18.70;;
65461;SDS011;53236;43.666;18.444;2023-03-21T01:25:34;31.10;;;17.97;;
65461;SDS011;53236;43.666;18.444;2023-03-21T01:28:00;25.57;;;14.37;;
65461;SDS011;53236;43.666;18.444;2023-03-21T01:30:26;20.70;;;12.90;;
65461;SDS011;53236;43.666;18.444;2023-03-21T01:32:52;25.17;;;14.97;;
65461;SDS011;53236;43.666;18.444;2023-03-21T01:35:17;26.33;;;15.00;;
65461;SDS011;53236;43.666;18.444;2023-03-21T01:37:43;27.80;;;15.17;;
65461;SDS011;53236;43.666;18.444;2023-03-21T01:40:10;28.53;;;16.70;;
65461;SDS011;53236;43.666;18.444;2023-03-21T01:42:41;29.23;;;15.80;;
65461;SDS011;53236;43.666;18.444;2023-03-21T01:46:04;24.03;;;14.60;;
65461;SDS011;53236;43.666;18.444;2023-03-21T01:48:11;23.77;;;14.40;;
65461;SDS011;53236;43.666;18.444;2023-03-21T01:50:38;23.70;;;15.03;;
65461;SDS011;53236;43.666;18.444;2023-03-21T01:53:05;22.87;;;13.43;;
65461;SDS011;53236;43.666;18.444;2023-03-21T01:55:31;24.00;;;14.23;;
65461;SDS011;53236;43.666;18.444;2023-03-21T01:57:58;21.73;;;13.17;;
65461;SDS011;53236;43.666;18.444;2023-03-21T02:00:28;18.43;;;10.90;;
65461;SDS011;53236;43.666;18.444;2023-03-21T02:02:55;21.00;;;11.53;;
65461;SDS011;53236;43.666;18.444;2023-03-21T02:05:49;27.47;;;16.40;;
65461;SDS011;53236;43.666;18.444;2023-03-21T02:08:12;33.17;;;19.40;;
65461;SDS011;53236;43.666;18.444;2023-03-21T02:10:38;32.20;;;19.83;;
65461;SDS011;53236;43.666;18.444;2023-03-21T02:13:07;29.63;;;18.20;;
65461;SDS011;53236;43.666;18.444;2023-03-21T02:15:37;31.33;;;18.87;;
65461;SDS011;53236;43.666;18.444;2023-03-21T02:21:10;28.00;;;17.43;;
65461;SDS011;53236;43.666;18.444;2023-03-21T02:37:47;26.17;;;15.23;;
65461;SDS011;53236;43.666;18.444;2023-03-21T02:40:30;23.03;;;14.03;;
65461;SDS011;53236;43.666;18.444;2023-03-21T02:43:08;20.60;;;14.40;;
65461;SDS011;53236;43.666;18.444;2023-03-21T02:45:39;24.53;;;14.80;;
65461;SDS011;53236;43.666;18.444;2023-03-21T02:48:18;19.43;;;12.07;;
65461;SDS011;53236;43.666;18.444;2023-03-21T02:50:51;26.17;;;15.30;;
65461;SDS011;53236;43.666;18.444;2023-03-21T02:53:19;28.27;;;15.70;;
65461;SDS011;53236;43.666;18.444;2023-03-21T02:55:47;33.63;;;20.30;;
65461;SDS011;53236;43.666;18.444;2023-03-21T02:58:16;27.40;;;16.20;;
65461;SDS011;53236;43.666;18.444;2023-03-21T03:00:44;23.50;;;15.20;;
65461;SDS011;53236;43.666;18.444;2023-03-21T03:03:11;32.73;;;16.30;;
65461;SDS011;53236;43.666;18.444;2023-03-21T03:05:51;23.70;;;14.83;;
65461;SDS011;53236;43.666;18.444;2023-03-21T03:16:22;19.40;;;12.37;;
65461;SDS011;53236;43.666;18.444;2023-03-21T03:23:58;21.47;;;12.83;;
65461;SDS011;53236;43.666;18.444;2023-03-21T03:26:50;21.53;;;12.63;;
65461;SDS011;53236;43.666;18.444;2023-03-21T03:29:19;25.40;;;13.13;;
65461;SDS011;53236;43.666;18.444;2023-03-21T03:34:17;25.20;;;15.83;;
65461;SDS011;53236;43.666;18.444;2023-03-21T03:36:48;25.40;;;16.43;;
65461;SDS011;53236;43.666;18.444;2023-03-21T03:39:20;22.60;;;14.40;;
65461;SDS011;53236;43.666;18.444;2023-03-21T03:42:12;20.57;;;12.13;;
65461;SDS011;53236;43.666;18.444;2023-03-21T03:44:44;18.00;;;11.13;;
65461;SDS011;53236;43.666;18.444;2023-03-21T03:47:11;19.43;;;13.83;;
65461;SDS011;53236;43.666;18.444;2023-03-21T03:49:49;22.60;;;13.10;;
65461;SDS011;53236;43.666;18.444;2023-03-21T03:52:31;22.00;;;13.23;;
65461;SDS011;53236;43.666;18.444;2023-03-21T03:55:01;22.63;;;14.17;;
65461;SDS011;53236;43.666;18.444;2023-03-21T03:57:27;23.90;;;14.37;;
65461;SDS011;53236;43.666;18.444;2023-03-21T03:59:54;23.73;;;14.83;;
65461;SDS011;53236;43.666;18.444;2023-03-21T04:02:20;23.47;;;15.40;;
65461;SDS011;53236;43.666;18.444;2023-03-21T04:04:46;25.13;;;14.20;;
65461;SDS011;53236;43.666;18.444;2023-03-21T04:07:13;20.80;;;13.77;;
65461;SDS011;53236;43.666;18.444;2023-03-21T04:09:38;25.83;;;16.30;;
65461;SDS011;53236;43.666;18.444;2023-03-21T04:12:04;28.43;;;16.20;;
65461;SDS011;53236;43.666;18.444;2023-03-21T04:14:30;19.07;;;13.97;;
65461;SDS011;53236;43.666;18.444;2023-03-21T04:16:56;22.73;;;13.10;;
65461;SDS011;53236;43.666;18.444;2023-03-21T04:19:21;19.37;;;12.77;;
65461;SDS011;53236;43.666;18.444;2023-03-21T04:21:47;21.87;;;13.60;;
65461;SDS011;53236;43.666;18.444;2023-03-21T04:24:13;17.80;;;12.73;;
65461;SDS011;53236;43.666;18.444;2023-03-21T04:26:39;20.27;;;12.63;;
65461;SDS011;53236;43.666;18.444;2023-03-21T04:29:05;16.73;;;10.87;;
65461;SDS011;53236;43.666;18.444;2023-03-21T04:31:31;17.37;;;10.53;;
65461;SDS011;53236;43.666;18.444;2023-03-21T04:34:00;17.00;;;12.20;;
65461;SDS011;53236;43.666;18.444;2023-03-21T04:36:28;22.17;;;15.37;;
65461;SDS011;53236;43.666;18.444;2023-03-21T04:39:03;20.40;;;15.20;;
65461;SDS011;53236;43.666;18.444;2023-03-21T04:41:35;21.03;;;13.40;;
65461;SDS011;53236;43.666;18.444;2023-03-21T04:44:02;18.83;;;12.83;;
65461;SDS011;53236;43.666;18.444;2023-03-21T04:46:28;23.60;;;13.70;;
65461;SDS011;53236;43.666;18.444;2023-03-21T04:48:54;18.13;;;12.50;;
65461;SDS011;53236;43.666;18.444;2023-03-21T04:51:19;20.50;;;13.47;;
65461;SDS011;53236;43.666;18.444;2023-03-21T04:53:45;19.90;;;13.07;;
65461;SDS011;53236;43.666;18.444;2023-03-21T04:56:13;19.83;;;14.07;;
65461;SDS011;53236;43.666;18.444;2023-03-21T04:58:40;27.87;;;16.57;;
65461;SDS011;53236;43.666;18.444;2023-03-21T05:01:06;29.07;;;19.60;;
65461;SDS011;53236;43.666;18.444;2023-03-21T05:03:32;31.27;;;19.23;;
65461;SDS011;53236;43.666;18.444;2023-03-21T05:06:01;27.57;;;17.80;;
65461;SDS011;53236;43.666;18.444;2023-03-21T05:08:27;37.97;;;23.37;;
65461;SDS011;53236;43.666;18.444;2023-03-21T05:10:53;32.30;;;22.77;;
65461;SDS011;53236;43.666;18.444;2023-03-21T05:13:19;31.63;;;20.63;;
65461;SDS011;53236;43.666;18.444;2023-03-21T05:15:44;28.07;;;19.60;;
65461;SDS011;53236;43.666;18.444;2023-03-21T05:18:10;34.50;;;22.00;;
65461;SDS011;53236;43.666;18.444;2023-03-21T05:20:37;29.03;;;18.30;;
65461;SDS011;53236;43.666;18.444;2023-03-21T05:23:06;23.13;;;14.47;;
65461;SDS011;53236;43.666;18.444;2023-03-21T05:25:36;24.67;;;16.00;;
65461;SDS011;53236;43.666;18.444;2023-03-21T05:28:03;24.50;;;17.23;;
65461;SDS011;53236;43.666;18.444;2023-03-21T05:30:30;27.23;;;18.17;;
65461;SDS011;53236;43.666;18.444;2023-03-21T05:32:56;24.63;;;17.77;;
65461;SDS011;53236;43.666;18.444;2023-03-21T05:35:22;30.80;;;19.53;;
65461;SDS011;53236;43.666;18.444;2023-03-21T05:37:48;34.47;;;19.23;;
65461;SDS011;53236;43.666;18.444;2023-03-21T05:40:13;31.40;;;22.23;;
65461;SDS011;53236;43.666;18.444;2023-03-21T05:42:39;43.17;;;27.13;;
65461;SDS011;53236;43.666;18.444;2023-03-21T05:45:05;28.37;;;19.40;;
65461;SDS011;53236;43.666;18.444;2023-03-21T05:47:31;37.50;;;24.30;;
65461;SDS011;53236;43.666;18.444;2023-03-21T05:49:57;36.47;;;25.57;;
65461;SDS011;53236;43.666;18.444;2023-03-21T05:52:22;30.40;;;20.53;;
65461;SDS011;53236;43.666;18.444;2023-03-21T05:54:48;28.37;;;19.07;;
65461;SDS011;53236;43.666;18.444;2023-03-21T05:57:14;38.93;;;26.27;;
65461;SDS011;53236;43.666;18.444;2023-03-21T05:59:40;38.50;;;24.67;;
65461;SDS011;53236;43.666;18.444;2023-03-21T06:02:05;43.87;;;26.70;;
65461;SDS011;53236;43.666;18.444;2023-03-21T06:04:31;42.37;;;25.30;;
65461;SDS011;53236;43.666;18.444;2023-03-21T06:06:57;36.93;;;24.10;;
65461;SDS011;53236;43.666;18.444;2023-03-21T06:09:23;37.00;;;22.20;;
65461;SDS011;53236;43.666;18.444;2023-03-21T06:11:50;35.53;;;22.07;;
65461;SDS011;53236;43.666;18.444;2023-03-21T06:14:17;38.00;;;22.53;;
65461;SDS011;53236;43.666;18.444;2023-03-21T06:16:44;36.43;;;22.87;;
65461;SDS011;53236;43.666;18.444;2023-03-21T06:19:10;40.27;;;24.30;;
65461;SDS011;53236;43.666;18.444;2023-03-21T06:21:36;37.67;;;24.03;;
65461;SDS011;53236;43.666;18.444;2023-03-21T06:24:02;36.57;;;25.50;;
65461;SDS011;53236;43.666;18.444;2023-03-21T06:26:27;32.20;;;22.33;;
65461;SDS011;53236;43.666;18.444;2023-03-21T06:28:53;38.47;;;23.53;;
65461;SDS011;53236;43.666;18.444;2023-03-21T06:31:19;36.00;;;22.37;;
65461;SDS011;53236;43.666;18.444;2023-03-21T06:33:46;21.87;;;14.27;;
65461;SDS011;53236;43.666;18.444;2023-03-21T06:36:13;27.77;;;16.63;;
65461;SDS011;53236;43.666;18.444;2023-03-21T06:38:39;27.83;;;18.10;;
65461;SDS011;53236;43.666;18.444;2023-03-21T06:41:05;34.87;;;21.30;;
65461;SDS011;53236;43.666;18.444;2023-03-21T06:43:32;26.53;;;18.40;;
65461;SDS011;53236;43.666;18.444;2023-03-21T06:45:58;27.80;;;19.03;;
65461;SDS011;53236;43.666;18.444;2023-03-21T06:48:25;39.60;;;26.10;;
65461;SDS011;53236;43.666;18.444;2023-03-21T06:50:51;47.77;;;29.67;;
65461;SDS011;53236;43.666;18.444;2023-03-21T06:53:18;56.33;;;34.33;;
65461;SDS011;53236;43.666;18.444;2023-03-21T06:55:48;58.53;;;38.07;;
65461;SDS011;53236;43.666;18.444;2023-03-21T06:58:14;46.97;;;31.20;;
65461;SDS011;53236;43.666;18.444;2023-03-21T07:00:40;40.97;;;28.60;;
65461;SDS011;53236;43.666;18.444;2023-03-21T07:03:06;40.50;;;27.63;;
65461;SDS011;53236;43.666;18.444;2023-03-21T07:05:33;40.57;;;27.23;;
65461;SDS011;53236;43.666;18.444;2023-03-21T07:08:00;39.03;;;26.00;;
65461;SDS011;53236;43.666;18.444;2023-03-21T07:10:25;58.47;;;35.67;;
65461;SDS011;53236;43.666;18.444;2023-03-21T07:12:51;42.90;;;30.90;;
65461;SDS011;53236;43.666;18.444;2023-03-21T07:15:17;37.67;;;27.27;;
65461;SDS011;53236;43.666;18.444;2023-03-21T07:17:43;35.97;;;23.07;;
65461;SDS011;53236;43.666;18.444;2023-03-21T07:20:08;34.10;;;24.17;;
65461;SDS011;53236;43.666;18.444;2023-03-21T07:22:36;35.37;;;23.27;;
65461;SDS011;53236;43.666;18.444;2023-03-21T07:25:02;34.40;;;24.03;;
65461;SDS011;53236;43.666;18.444;2023-03-21T07:27:28;32.33;;;23.70;;
65461;SDS011;53236;43.666;18.444;2023-03-21T07:29:54;37.83;;;26.47;;
65461;SDS011;53236;43.666;18.444;2023-03-21T07:32:20;38.40;;;26.57;;
65461;SDS011;53236;43.666;18.444;2023-03-21T07:34:46;42.43;;;28.30;;
65461;SDS011;53236;43.666;18.444;2023-03-21T07:37:11;37.10;;;26.80;;
65461;SDS011;53236;43.666;18.444;2023-03-21T07:39:38;72.37;;;43.00;;
65461;SDS011;53236;43.666;18.444;2023-03-21T07:42:03;47.27;;;31.80;;
65461;SDS011;53236;43.666;18.444;2023-03-21T07:44:29;41.10;;;28.43;;
65461;SDS011;53236;43.666;18.444;2023-03-21T07:46:57;37.73;;;25.00;;
65461;SDS011;53236;43.666;18.444;2023-03-21T07:49:23;34.97;;;24.50;;
65461;SDS011;53236;43.666;18.444;2023-03-21T07:51:48;44.20;;;31.10;;
65461;SDS011;53236;43.666;18.444;2023-03-21T07:54:14;46.97;;;31.27;;
65461;SDS011;53236;43.666;18.444;2023-03-21T07:56:43;52.53;;;33.60;;
65461;SDS011;53236;43.666;18.444;2023-03-21T07:59:09;46.30;;;32.43;;
65461;SDS011;53236;43.666;18.444;2023-03-21T08:01:34;47.90;;;30.13;;
65461;SDS011;53236;43.666;18.444;2023-03-21T08:04:00;45.73;;;32.47;;
65461;SDS011;53236;43.666;18.444;2023-03-21T08:06:26;47.03;;;31.17;;
65461;SDS011;53236;43.666;18.444;2023-03-21T08:08:53;50.60;;;33.03;;
65461;SDS011;53236;43.666;18.444;2023-03-21T08:11:18;46.63;;;29.60;;
65461;SDS011;53236;43.666;18.444;2023-03-21T08:13:46;57.40;;;39.80;;
65461;SDS011;53236;43.666;18.444;2023-03-21T08:16:12;58.27;;;35.87;;
65461;SDS011;53236;43.666;18.444;2023-03-21T08:18:37;58.97;;;40.20;;
65461;SDS011;53236;43.666;18.444;2023-03-21T08:21:03;50.40;;;36.07;;
65461;SDS011;53236;43.666;18.444;2023-03-21T08:23:29;47.70;;;33.93;;
65461;SDS011;53236;43.666;18.444;2023-03-21T08:25:55;55.33;;;36.70;;
65461;SDS011;53236;43.666;18.444;2023-03-21T08:28:21;59.00;;;39.30;;
65461;SDS011;53236;43.666;18.444;2023-03-21T08:30:48;56.90;;;38.13;;
65461;SDS011;53236;43.666;18.444;2023-03-21T08:33:14;52.43;;;34.87;;
65461;SDS011;53236;43.666;18.444;2023-03-21T08:35:41;52.33;;;36.97;;
65461;SDS011;53236;43.666;18.444;2023-03-21T08:38:07;53.27;;;37.70;;
65461;SDS011;53236;43.666;18.444;2023-03-21T08:40:33;119.50;;;70.30;;
65461;SDS011;53236;43.666;18.444;2023-03-21T08:43:00;168.83;;;98.83;;
65461;SDS011;53236;43.666;18.444;2023-03-21T08:45:26;73.23;;;44.90;;
65461;SDS011;53236;43.666;18.444;2023-03-21T08:47:52;44.13;;;27.97;;
65461;SDS011;53236;43.666;18.444;2023-03-21T08:50:19;37.67;;;25.13;;
65461;SDS011;53236;43.666;18.444;2023-03-21T08:52:46;41.70;;;27.60;;
65461;SDS011;53236;43.666;18.444;2023-03-21T08:55:12;48.67;;;31.73;;
65461;SDS011;53236;43.666;18.444;2023-03-21T08:57:40;42.93;;;29.23;;
65461;SDS011;53236;43.666;18.444;2023-03-21T09:00:07;40.10;;;28.43;;
65461;SDS011;53236;43.666;18.444;2023-03-21T09:02:37;46.33;;;27.57;;
65461;SDS011;53236;43.666;18.444;2023-03-21T09:05:03;43.43;;;29.80;;
65461;SDS011;53236;43.666;18.444;2023-03-21T09:07:30;43.40;;;28.93;;
65461;SDS011;53236;43.666;18.444;2023-03-21T09:09:58;50.67;;;32.60;;
65461;SDS011;53236;43.666;18.444;2023-03-21T09:12:24;41.50;;;30.10;;
65461;SDS011;53236;43.666;18.444;2023-03-21T09:14:50;59.83;;;35.93;;
65461;SDS011;53236;43.666;18.444;2023-03-21T09:17:17;47.80;;;32.53;;
65461;SDS011;53236;43.666;18.444;2023-03-21T09:19:44;42.80;;;31.20;;
65461;SDS011;53236;43.666;18.444;2023-03-21T09:22:13;35.20;;;25.43;;
65461;SDS011;53236;43.666;18.444;2023-03-21T09:24:42;42.17;;;27.57;;
65461;SDS011;53236;43.666;18.444;2023-03-21T09:27:11;35.80;;;24.50;;
65461;SDS011;53236;43.666;18.444;2023-03-21T09:29:38;33.17;;;22.70;;
65461;SDS011;53236;43.666;18.444;2023-03-21T09:32:07;31.50;;;20.80;;
65461;SDS011;53236;43.666;18.444;2023-03-21T09:34:33;27.17;;;18.10;;
65461;SDS011;53236;43.666;18.444;2023-03-21T09:37:01;30.03;;;19.73;;
65461;SDS011;53236;43.666;18.444;2023-03-21T09:39:27;25.13;;;15.97;;
65461;SDS011;53236;43.666;18.444;2023-03-21T09:47:40;52.00;;;33.73;;
65461;SDS011;53236;43.666;18.444;2023-03-21T09:55:40;12.87;;;8.80;;
65461;SDS011;53236;43.666;18.444;2023-03-21T10:01:08;13.67;;;8.77;;
65461;SDS011;53236;43.666;18.444;2023-03-21T10:03:46;16.47;;;9.80;;
65461;SDS011;53236;43.666;18.444;2023-03-21T10:06:17;12.63;;;7.90;;
65461;SDS011;53236;43.666;18.444;2023-03-21T10:08:46;10.00;;;7.17;;
65461;SDS011;53236;43.666;18.444;2023-03-21T10:11:28;12.60;;;8.57;;
65461;SDS011;53236;43.666;18.444;2023-03-21T10:16:29;14.27;;;7.47;;
65461;SDS011;53236;43.666;18.444;2023-03-21T10:19:02;15.33;;;7.60;;
65461;SDS011;53236;43.666;18.444;2023-03-21T10:21:34;13.73;;;7.00;;
65461;SDS011;53236;43.666;18.444;2023-03-21T10:24:08;10.13;;;6.47;;
65461;SDS011;53236;43.666;18.444;2023-03-21T10:26:43;12.48;;;7.63;;
65461;SDS011;53236;43.666;18.444;2023-03-21T10:29:11;18.43;;;11.27;;
65461;SDS011;53236;43.666;18.444;2023-03-21T10:31:39;12.50;;;8.47;;
65461;SDS011;53236;43.666;18.444;2023-03-21T10:34:08;10.67;;;7.10;;
65461;SDS011;53236;43.666;18.444;2023-03-21T10:39:12;9.73;;;6.00;;
65461;SDS011;53236;43.666;18.444;2023-03-21T10:41:59;8.87;;;6.07;;
65461;SDS011;53236;43.666;18.444;2023-03-21T10:44:29;13.37;;;6.77;;
65461;SDS011;53236;43.666;18.444;2023-03-21T10:46:57;9.10;;;5.82;;
65461;SDS011;53236;43.666;18.444;2023-03-21T10:49:30;9.10;;;5.60;;
65461;SDS011;53236;43.666;18.444;2023-03-21T10:51:57;8.50;;;5.25;;
65461;SDS011;53236;43.666;18.444;2023-03-21T10:54:27;6.22;;;4.57;;
65461;SDS011;53236;43.666;18.444;2023-03-21T10:57:00;8.23;;;4.70;;
65461;SDS011;53236;43.666;18.444;2023-03-21T10:59:52;7.65;;;5.00;;
65461;SDS011;53236;43.666;18.444;2023-03-21T11:02:27;8.65;;;4.85;;
65461;SDS011;53236;43.666;18.444;2023-03-21T11:04:57;7.00;;;4.82;;
65461;SDS011;53236;43.666;18.444;2023-03-21T11:08:02;8.98;;;4.65;;
65461;SDS011;53236;43.666;18.444;2023-03-21T11:10:53;6.90;;;4.30;;
65461;SDS011;53236;43.666;18.444;2023-03-21T11:13:32;6.38;;;4.07;;
65461;SDS011;53236;43.666;18.444;2023-03-21T11:16:17;8.30;;;4.95;;
65461;SDS011;53236;43.666;18.444;2023-03-21T11:18:48;7.25;;;4.95;;
65461;SDS011;53236;43.666;18.444;2023-03-21T11:21:15;6.75;;;4.20;;
65461;SDS011;53236;43.666;18.444;2023-03-21T11:23:45;5.72;;;4.13;;
65461;SDS011;53236;43.666;18.444;2023-03-21T11:26:20;6.40;;;4.53;;
65461;SDS011;53236;43.666;18.444;2023-03-21T11:28:51;7.43;;;4.75;;
65461;SDS011;53236;43.666;18.444;2023-03-21T11:31:18;9.20;;;4.97;;
65461;SDS011;53236;43.666;18.444;2023-03-21T11:33:51;7.57;;;5.20;;
65461;SDS011;53236;43.666;18.444;2023-03-21T11:38:47;11.57;;;7.10;;
65461;SDS011;53236;43.666;18.444;2023-03-21T11:41:24;9.60;;;5.73;;
65461;SDS011;53236;43.666;18.444;2023-03-21T11:43:54;11.20;;;7.10;;
65461;SDS011;53236;43.666;18.444;2023-03-21T11:46:24;11.87;;;7.63;;
65461;SDS011;53236;43.666;18.444;2023-03-21T11:48:54;12.37;;;6.80;;
65461;SDS011;53236;43.666;18.444;2023-03-21T11:54:23;8.70;;;5.27;;
65461;SDS011;53236;43.666;18.444;2023-03-21T11:59:56;9.27;;;5.77;;
65461;SDS011;53236;43.666;18.444;2023-03-21T12:02:54;8.73;;;5.57;;
65461;SDS011;53236;43.666;18.444;2023-03-21T12:05:59;7.63;;;5.87;;
65461;SDS011;53236;43.666;18.444;2023-03-21T12:15:08;12.37;;;8.50;;
65461;SDS011;53236;43.666;18.444;2023-03-21T12:17:46;15.17;;;10.47;;
65461;SDS011;53236;43.666;18.444;2023-03-21T12:37:12;20.30;;;12.07;;
65461;SDS011;53236;43.666;18.444;2023-03-21T12:39:47;17.03;;;11.53;;
65461;SDS011;53236;43.666;18.444;2023-03-21T12:47:37;17.30;;;10.93;;
65461;SDS011;53236;43.666;18.444;2023-03-21T12:50:26;13.00;;;9.67;;
65461;SDS011;53236;43.666;18.444;2023-03-21T12:53:04;18.57;;;10.73;;
65461;SDS011;53236;43.666;18.444;2023-03-21T12:55:52;20.93;;;12.20;;
65461;SDS011;53236;43.666;18.444;2023-03-21T12:58:21;23.03;;;14.47;;
65461;SDS011;53236;43.666;18.444;2023-03-21T13:00:51;23.87;;;13.67;;
65461;SDS011;53236;43.666;18.444;2023-03-21T13:03:28;20.90;;;12.63;;
65461;SDS011;53236;43.666;18.444;2023-03-21T13:05:59;20.80;;;13.60;;
65461;SDS011;53236;43.666;18.444;2023-03-21T13:11:06;21.37;;;13.90;;
65461;SDS011;53236;43.666;18.444;2023-03-21T13:13:36;24.43;;;14.70;;
65461;SDS011;53236;43.666;18.444;2023-03-21T13:18:43;24.17;;;14.47;;
65461;SDS011;53236;43.666;18.444;2023-03-21T13:23:53;19.73;;;12.60;;
65461;SDS011;53236;43.666;18.444;2023-03-21T13:26:35;20.00;;;13.60;;
65461;SDS011;53236;43.666;18.444;2023-03-21T13:29:12;25.90;;;14.73;;
65461;SDS011;53236;43.666;18.444;2023-03-21T13:31:50;50.50;;;25.90;;
65461;SDS011;53236;43.666;18.444;2023-03-21T13:34:21;55.63;;;30.07;;
65461;SDS011;53236;43.666;18.444;2023-03-21T13:36:49;29.47;;;15.77;;
65461;SDS011;53236;43.666;18.444;2023-03-21T13:39:16;23.47;;;14.13;;
65461;SDS011;53236;43.666;18.444;2023-03-21T13:41:52;24.73;;;15.43;;
65461;SDS011;53236;43.666;18.444;2023-03-21T13:50:10;14.20;;;10.00;;
65461;SDS011;53236;43.666;18.444;2023-03-21T13:52:41;13.77;;;9.57;;
65461;SDS011;53236;43.666;18.444;2023-03-21T13:55:14;14.77;;;10.23;;
65461;SDS011;53236;43.666;18.444;2023-03-21T13:57:41;16.97;;;10.07;;
65461;SDS011;53236;43.666;18.444;2023-03-21T14:00:18;14.97;;;9.73;;
65461;SDS011;53236;43.666;18.444;2023-03-21T14:05:34;15.90;;;10.67;;
65461;SDS011;53236;43.666;18.444;2023-03-21T14:08:02;14.27;;;9.90;;
65461;SDS011;53236;43.666;18.444;2023-03-21T14:10:34;21.40;;;11.97;;
65461;SDS011;53236;43.666;18.444;2023-03-21T14:13:07;12.63;;;8.40;;
65461;SDS011;53236;43.666;18.444;2023-03-21T14:15:42;15.67;;;9.47;;
65461;SDS011;53236;43.666;18.444;2023-03-21T14:18:22;14.57;;;8.73;;
65461;SDS011;53236;43.666;18.444;2023-03-21T14:20:53;13.90;;;8.77;;
65461;SDS011;53236;43.666;18.444;2023-03-21T14:23:20;14.70;;;9.13;;
65461;SDS011;53236;43.666;18.444;2023-03-21T14:25:47;12.50;;;7.83;;
65461;SDS011;53236;43.666;18.444;2023-03-21T14:28:14;16.50;;;8.57;;
65461;SDS011;53236;43.666;18.444;2023-03-21T14:30:58;13.47;;;9.03;;
65461;SDS011;53236;43.666;18.444;2023-03-21T14:33:32;16.10;;;10.07;;
65461;SDS011;53236;43.666;18.444;2023-03-21T14:36:23;14.90;;;9.00;;
65461;SDS011;53236;43.666;18.444;2023-03-21T14:39:05;17.80;;;10.57;;
65461;SDS011;53236;43.666;18.444;2023-03-21T14:41:42;17.03;;;11.33;;
65461;SDS011;53236;43.666;18.444;2023-03-21T14:46:50;16.90;;;9.87;;
65461;SDS011;53236;43.666;18.444;2023-03-21T14:49:18;20.90;;;11.73;;
65461;SDS011;53236;43.666;18.444;2023-03-21T14:51:50;20.03;;;11.67;;
65461;SDS011;53236;43.666;18.444;2023-03-21T14:54:18;32.17;;;18.80;;
65461;SDS011;53236;43.666;18.444;2023-03-21T14:57:07;21.93;;;14.10;;
65461;SDS011;53236;43.666;18.444;2023-03-21T14:59:35;28.67;;;18.73;;
65461;SDS011;53236;43.666;18.444;2023-03-21T15:02:16;27.87;;;16.93;;
65461;SDS011;53236;43.666;18.444;2023-03-21T15:04:44;24.27;;;16.50;;
65461;SDS011;53236;43.666;18.444;2023-03-21T15:07:24;22.90;;;15.63;;
65461;SDS011;53236;43.666;18.444;2023-03-21T15:09:55;23.80;;;15.20;;
65461;SDS011;53236;43.666;18.444;2023-03-21T15:12:22;19.17;;;13.33;;
65461;SDS011;53236;43.666;18.444;2023-03-21T15:14:47;35.93;;;22.03;;
65461;SDS011;53236;43.666;18.444;2023-03-21T15:17:14;34.17;;;20.40;;
65461;SDS011;53236;43.666;18.444;2023-03-21T15:19:40;30.53;;;19.60;;
65461;SDS011;53236;43.666;18.444;2023-03-21T15:22:24;32.27;;;19.73;;
65461;SDS011;53236;43.666;18.444;2023-03-21T15:25:00;51.57;;;30.97;;
65461;SDS011;53236;43.666;18.444;2023-03-21T15:27:29;41.60;;;23.50;;
65461;SDS011;53236;43.666;18.444;2023-03-21T15:29:58;33.50;;;20.47;;
65461;SDS011;53236;43.666;18.444;2023-03-21T15:32:25;27.20;;;18.37;;
65461;SDS011;53236;43.666;18.444;2023-03-21T15:34:52;25.20;;;17.40;;
65461;SDS011;53236;43.666;18.444;2023-03-21T15:37:26;22.23;;;16.83;;
65461;SDS011;53236;43.666;18.444;2023-03-21T15:39:53;26.47;;;16.93;;
65461;SDS011;53236;43.666;18.444;2023-03-21T15:42:36;22.50;;;15.83;;
65461;SDS011;53236;43.666;18.444;2023-03-21T15:45:22;23.60;;;15.13;;
65461;SDS011;53236;43.666;18.444;2023-03-21T15:50:36;34.13;;;23.00;;
65461;SDS011;53236;43.666;18.444;2023-03-21T15:53:06;38.17;;;22.67;;
65461;SDS011;53236;43.666;18.444;2023-03-21T15:55:41;34.10;;;22.27;;
65461;SDS011;53236;43.666;18.444;2023-03-21T15:58:13;37.00;;;20.20;;
65461;SDS011;53236;43.666;18.444;2023-03-21T16:00:45;34.73;;;20.83;;
65461;SDS011;53236;43.666;18.444;2023-03-21T16:05:59;27.37;;;16.47;;
65461;SDS011;53236;43.666;18.444;2023-03-21T16:08:26;25.90;;;17.33;;
65461;SDS011;53236;43.666;18.444;2023-03-21T16:10:52;24.20;;;17.10;;
65461;SDS011;53236;43.666;18.444;2023-03-21T16:13:18;29.90;;;18.80;;
65461;SDS011;53236;43.666;18.444;2023-03-21T16:15:44;46.57;;;25.07;;
65461;SDS011;53236;43.666;18.444;2023-03-21T16:18:11;40.43;;;23.63;;
65461;SDS011;53236;43.666;18.444;2023-03-21T16:20:40;35.50;;;21.80;;
65461;SDS011;53236;43.666;18.444;2023-03-21T16:23:11;37.93;;;21.50;;